Latest Coastal Weather Observations for King Island Airport

IDV60701

Issued at 4:02 am EST Tuesday 28 June 2022 (issued every 10 minutes, with the page automatically refreshed every 10 minutes)

About coastal observations | Map of coastal stations | Coastal observations for VIC | Marine services | Other Formats
Station Details ID: 098017 Name: KING ISLAND AIRPORT Lat: -39.88 Lon: 143.89 Height: 35.42 m
Data from the previous 72 hours. | See also: Recent months at King Island Airport
Date/Time
EST
Wind Sea
Height
m
Swell Vis
km
Cloud Weather Temp
°C
Press
MSL
hPa
Rain since
9am
mm
Dir  Spd
kts
Gust
kts
Height
m
Period
s
Dir
28/04:00am NW 17 21 - - - - 10 Cloudy - 12.3 1029.0 0.2
28/03:30am NW 18 22 - - - - 10 Partly cloudy - 12.4 1029.1 0.2
28/03:00am NW 15 21 - - - - 10 Cloudy Showers 12.0 1029.4 0.2
28/02:30am NW 15 18 - - - - 10 Cloudy - 12.4 1029.6 0.2
28/02:00am NW 14 19 - - - - 10 Cloudy - 12.5 1029.5 0.2
28/01:30am NW 13 17 - - - - 10 Cloudy - 12.2 1029.7 0.2
28/01:00am NW 15 19 - - - - 10 Cloudy - 12.1 1029.9 0.2
28/12:30am NW 10 15 - - - - 10 Cloudy - 11.9 1030.1 0.2
28/12:00am NW 11 15 - - - - 10 Cloudy - 11.8 1030.7 0.2
 
Date/Time
EST
Wind Sea
Height
m
Swell Vis
km
Cloud Weather Temp
°C
Press
MSL
hPa
Rain since
9am
mm
Dir  Spd
kts
Gust
kts
Height
m
Period
s
Dir
27/11:30pm NW 14 18 - - - - 10 Cloudy - 11.8 1031.0 0.2
27/11:00pm NW 12 17 - - - - 10 Cloudy - 11.3 1031.0 0.2
27/10:30pm NW 11 15 - - - - 10 Cloudy - 11.5 1031.1 0.2
27/10:00pm NW 11 14 - - - - 10 Cloudy - 11.5 1031.1 0.2
27/09:30pm NW 11 15 - - - - 10 Cloudy - 11.7 1031.4 0.2
27/09:00pm NNW 8 10 - - - - 10 Cloudy - 11.1 1031.7 0.2
27/08:30pm NNW 7 8 - - - - 10 Partly cloudy - 10.6 1031.6 0.2
27/08:00pm W 5 7 - - - - 10 Partly cloudy - 10.6 1031.8 0.2
27/07:30pm WNW 5 7 - - - - 10 Partly cloudy - 9.9 1031.8 0.2
27/07:00pm NW 9 12 - - - - 10 Partly cloudy - 10.8 1031.7 0.2
27/06:30pm W 9 14 - - - - 10 Partly cloudy - 11.1 1031.7 0.2
27/06:00pm W 5 6 - - - - 10 Mostly cloudy - 10.9 1031.6 0.2
27/05:30pm W 6 8 - - - - 10 Partly cloudy - 10.8 1031.6 0.2
27/05:00pm W 7 9 - - - - 10 Cloudy - 11.3 1031.5 0.2
27/04:30pm W 5 7 - - - - 10 Partly cloudy - 11.1 1031.4 0.2
27/04:00pm W 6 8 - - - - 10 Partly cloudy - 11.2 1031.6 0.2
27/03:30pm WSW 7 9 - - - - 10 - - 11.5 1031.6 0.2
27/03:00pm WSW 7 10 - - - - 10 Mostly clear - 12.0 1031.5 0.2
27/02:30pm WSW 8 11 - - - - 10 Partly cloudy - 12.0 1031.6 0.2
27/02:00pm W 8 13 - - - - 10 Partly cloudy - 12.3 1031.5 0.2
27/01:30pm W 8 12 - - - - 10 Partly cloudy - 12.7 1031.5 0.0
27/01:00pm WSW 9 14 - - - - 10 Partly cloudy - 12.7 1031.7 0.0
27/12:30pm WSW 9 13 - - - - 10 Partly cloudy - 12.4 1031.8 0.0
27/12:00pm WSW 11 15 - - - - 10 Mostly cloudy - 12.7 1032.0 0.0
27/11:30am SW 10 12 - - - - 10 Cloudy - 12.0 1032.6 0.0
27/11:00am SW 11 16 - - - - 10 Cloudy - 11.4 1033.0 0.0
27/10:30am SW 9 13 - - - - 10 Partly cloudy - 11.6 1032.9 0.0
27/10:00am S 5 9 - - - - 10 Partly cloudy - 10.5 1032.5 0.0
27/09:30am SSW 14 19 - - - - 10 Partly cloudy - 9.6 1032.4 0.0
27/09:00am SW 6 8 - - - - 10 Cloudy - 11.0 1031.7 1.2
27/08:30am SW 12 17 - - - - 10 Partly cloudy - 10.3 1031.5 1.2
27/08:00am SW 9 12 - - - - 10 Cloudy - 9.6 1031.0 1.2
27/07:30am SW 11 18 - - - - 10 Partly cloudy - 10.0 1030.6 1.2
27/07:00am SSW 11 16 - - - - 10 Partly cloudy - 9.9 1030.6 1.2
27/06:30am SW 12 16 - - - - 10 Partly cloudy - 9.5 1030.1 1.2
27/06:00am SW 14 19 - - - - 10 Mostly cloudy - 9.6 1029.7 1.2
27/05:30am SW 13 17 - - - - 10 Partly cloudy - 9.6 1029.6 1.2
27/05:00am SW 17 25 - - - - 10 Partly cloudy - 9.2 1029.4 1.2
27/04:30am SW 16 22 - - - - 10 Partly cloudy - 9.7 1029.2 1.2
27/04:02am SW 15 25 - - - - 10 Partly cloudy - 9.2 1028.8 1.2
27/04:00am SW 17 25 - - - - 10 Partly cloudy - 9.2 1028.9 1.2
27/03:30am SW 14 24 - - - - 10 Partly cloudy - 9.6 1028.9 1.2
27/03:00am WSW 14 18 - - - - 10 Cloudy - 10.0 1028.9 1.2
27/02:30am WSW 16 21 - - - - 10 Partly cloudy - 9.9 1028.9 1.2
27/02:00am WSW 14 20 - - - - 10 Partly cloudy - 9.8 1028.7 1.2
27/01:30am WSW 12 15 - - - - 10 Partly cloudy - 9.8 1028.6 1.2
27/01:00am WSW 12 17 - - - - 10 Partly cloudy - 9.5 1028.5 1.2
27/12:30am SW 14 23 - - - - 10 Partly cloudy - 9.7 1028.3 1.2
27/12:00am SW 15 20 - - - - 10 Mostly clear - 9.4 1028.5 1.2
 
Date/Time
EST
Wind Sea
Height
m
Swell Vis
km
Cloud Weather Temp
°C
Press
MSL
hPa
Rain since
9am
mm
Dir  Spd
kts
Gust
kts
Height
m
Period
s
Dir
26/11:30pm SW 11 13 - - - - 10 Partly cloudy - 8.8 1028.5 1.2
26/11:00pm SW 12 16 - - - - 10 - - 9.2 1028.1 1.2
26/10:30pm SW 14 19 - - - - 10 Partly cloudy - 9.5 1028.0 1.2
26/10:00pm SW 13 17 - - - - 10 Partly cloudy - 9.7 1027.7 1.2
26/09:30pm SW 14 19 - - - - 10 Partly cloudy - 9.2 1027.5 1.2
26/09:00pm SW 12 17 - - - - 10 Partly cloudy - 9.3 1026.9 1.2
26/08:30pm SW 13 19 - - - - 10 Partly cloudy - 8.9 1026.8 1.2
26/08:00pm SW 15 19 - - - - 10 Partly cloudy - 9.7 1026.4 1.2
26/07:33pm SW 15 25 - - - - 10 Partly cloudy - 9.9 1025.9 1.2
26/07:30pm SW 14 19 - - - - 10 Partly cloudy - 9.5 1025.9 1.2
26/07:00pm SW 17 25 - - - - 10 Partly cloudy - 9.4 1025.5 1.2
26/06:45pm WSW 15 25 - - - - 10 Partly cloudy - 9.6 1025.4 1.2
26/06:30pm SW 14 22 - - - - 10 Partly cloudy - 9.7 1025.2 1.2
26/06:00pm SW 12 22 - - - - 10 Cloudy Showers 8.9 1024.9 1.2
26/05:43pm SW 16 26 - - - - 10 Partly cloudy - 8.6 1024.7 1.0
26/05:30pm SSW 16 21 - - - - 10 Partly cloudy - 9.1 1024.5 1.0
26/05:00pm WSW 13 18 - - - - 10 Partly cloudy - 9.5 1024.2 1.0
26/04:36pm W 12 17 - - - - 10 Partly cloudy - 9.2 1023.9 1.0
26/04:30pm W 13 24 - - - - 9 Partly cloudy - 9.1 1023.9 1.0
26/04:23pm WSW 19 26 - - - - 5 Partly cloudy - 9.0 1024.0 1.0
26/04:07pm WSW 16 28 - - - - 10 Partly cloudy - 10.6 1023.5 0.6
26/04:00pm WSW 16 21 - - - - 10 Partly cloudy - 10.8 1023.3 0.6
26/03:30pm WSW 14 20 - - - - 10 Partly cloudy - 11.2 1023.0 0.6
26/03:00pm WSW 15 22 - - - - 10 Mostly cloudy - 11.4 1022.7 0.6
26/02:30pm SW 15 20 - - - - 10 Partly cloudy - 10.9 1022.6 0.6
26/02:00pm WSW 13 19 - - - - 10 Partly cloudy - 11.3 1022.4 0.6
26/01:30pm SW 15 20 - - - - 10 Partly cloudy - 11.8 1022.3 0.6
26/01:00pm WSW 16 24 - - - - 10 Partly cloudy - 10.6 1022.3 0.6
26/12:30pm W 12 19 - - - - 10 Partly cloudy - 10.9 1022.5 0.6
26/12:00pm SW 11 15 - - - - 10 Mostly cloudy Rain 11.2 1022.5 0.6
26/11:30am W 10 14 - - - - 10 Partly cloudy - 10.6 1022.5 0.6
26/11:00am WSW 10 13 - - - - 10 Partly cloudy - 11.0 1022.5 0.6
26/10:30am W 15 21 - - - - 10 Partly cloudy - 9.3 1022.2 0.4
26/10:00am WSW 11 16 - - - - 10 Partly cloudy - 10.6 1021.8 0.4
26/09:33am WSW 15 29 - - - - 10 Partly cloudy - 9.3 1021.9 0.2
26/09:30am WSW 13 24 - - - - 10 Partly cloudy - 11.4 1021.8 0.0
26/09:00am SW 12 16 - - - - 10 - - 10.0 1021.6 3.6
26/08:30am SW 15 19 - - - - 10 Partly cloudy - 9.9 1021.3 3.6
26/08:00am WSW 14 19 - - - - 10 Partly cloudy - 10.1 1020.7 3.6
26/07:30am W 13 19 - - - - 10 Partly cloudy - 10.1 1020.4 3.6
26/07:00am WSW 12 18 - - - - 10 Partly cloudy - 10.4 1019.9 3.6
26/06:30am WSW 14 18 - - - - 10 Partly cloudy - 10.3 1019.4 3.6
26/06:00am WSW 16 21 - - - - 10 Mostly cloudy - 10.4 1018.8 3.6
26/05:30am WSW 16 21 - - - - 10 Partly cloudy - 10.7 1018.5 3.6
26/05:00am WSW 14 21 - - - - 10 Partly cloudy - 10.4 1018.1 3.6
26/04:30am WSW 16 24 - - - - 10 Partly cloudy - 10.8 1017.8 3.6
26/04:00am WSW 16 23 - - - - 10 Partly cloudy - 11.0 1017.4 3.6
26/03:30am WSW 17 23 - - - - 10 Partly cloudy - 11.0 1017.0 3.6
26/03:00am WSW 16 23 - - - - 10 Cloudy Showers 11.4 1017.0 3.6
26/02:30am WSW 19 25 - - - - 10 Partly cloudy - 11.6 1016.5 3.6
26/02:00am WSW 18 27 - - - - 10 Partly cloudy - 11.3 1016.3 3.6
26/01:55am WSW 16 26 - - - - 10 Partly cloudy - 11.5 1016.2 3.6
26/01:47am WSW 14 19 - - - - 10 Partly cloudy - 11.1 1016.1 3.6
26/01:32am WSW 19 29 - - - - 4 Partly cloudy - 10.4 1016.2 3.4
26/01:30am WSW 20 29 - - - - 4 Partly cloudy - 10.5 1016.1 3.4
26/01:29am WSW 19 29 - - - - 4 Partly cloudy - 10.5 1016.2 3.4
26/01:27am WSW 19 26 - - - - 5 Partly cloudy - 11.0 1016.1 3.0
26/01:13am WSW 17 27 - - - - 7 Partly cloudy - 11.0 1015.9 2.6
26/01:00am WSW 18 25 - - - - 10 Partly cloudy - 11.3 1015.8 2.4
26/12:44am W 16 28 - - - - 10 Partly cloudy - 11.8 1015.6 1.8
26/12:30am W 15 20 - - - - 10 Partly cloudy - 11.9 1015.5 1.8
26/12:03am W 23 33 - - - - 10 Partly cloudy - 12.8 1015.1 1.8
26/12:00am W 22 31 - - - - 10 Cloudy - 12.9 1015.1 1.8
 
Date/Time
EST
Wind Sea
Height
m
Swell Vis
km
Cloud Weather Temp
°C
Press
MSL
hPa
Rain since
9am
mm
Dir  Spd
kts
Gust
kts
Height
m
Period
s
Dir
25/11:48pm WNW 22 33 - - - - 10 Partly cloudy - 13.0 1014.9 1.8
25/11:30pm WNW 23 31 - - - - 10 Partly cloudy - 13.0 1015.1 1.8
25/11:06pm WNW 24 34 - - - - 10 Partly cloudy - 13.2 1014.7 1.8
25/11:00pm WNW 24 31 - - - - 10 Partly cloudy - 13.0 1014.8 1.8
25/10:47pm WNW 24 34 - - - - 10 Partly cloudy - 12.6 1015.0 1.8
25/10:30pm WNW 23 31 - - - - 10 Partly cloudy - 12.6 1014.9 1.8
25/10:01pm WNW 21 31 - - - - 10 Partly cloudy - 13.2 1014.7 1.8
25/10:00pm WNW 22 31 - - - - 10 Partly cloudy - 13.3 1014.6 1.8
25/09:30pm WNW 24 34 - - - - 10 Partly cloudy - 12.8 1014.6 1.8
25/09:08pm WNW 24 31 - - - - 10 Partly cloudy - 12.3 1014.7 1.8
25/09:00pm WNW 24 31 - - - - 10 Cloudy Showers 12.0 1014.7 1.8
25/08:50pm WNW 26 39 - - - - 5 Partly cloudy - 11.3 1014.7 1.8
25/08:48pm WNW 25 37 - - - - 10 Partly cloudy - 12.6 1014.7 1.2
25/08:30pm WNW 19 27 - - - - 10 Partly cloudy - 13.2 1014.6 1.0
25/08:00pm WNW 23 33 - - - - 10 Partly cloudy - 13.2 1014.4 1.0
25/07:57pm WNW 23 33 - - - - 10 Partly cloudy - 13.1 1014.3 1.0
25/07:30pm WNW 24 33 - - - - 10 Partly cloudy - 12.6 1014.4 1.0
25/07:28pm WNW 23 33 - - - - 6 Partly cloudy - 12.6 1014.3 1.0
25/07:00pm NW 26 33 - - - - 10 Partly cloudy - 13.4 1014.1 0.6
25/06:30pm WNW 21 27 - - - - 10 Partly cloudy - 13.0 1014.1 0.6
25/06:23pm WNW 21 31 - - - - 10 Partly cloudy - 12.7 1014.1 0.6
25/06:00pm WNW 23 28 - - - - 10 Partly cloudy - 12.7 1013.9 0.6
25/05:30pm NW 23 29 - - - - 10 Partly cloudy - 12.6 1013.6 0.6
25/05:03pm WNW 21 35 - - - - 10 Partly cloudy - 12.5 1013.6 0.6
25/05:00pm WNW 18 25 - - - - 9 Partly cloudy - 12.7 1013.6 0.6
25/04:51pm WNW 19 26 - - - - 8 Partly cloudy - 12.8 1013.7 0.6
25/04:36pm WNW 23 31 - - - - 5 Partly cloudy - 12.3 1013.7 0.2
25/04:30pm WNW 22 28 - - - - 10 Partly cloudy - 13.5 1013.6 0.0
25/04:00pm WNW 23 29 - - - - 10 Partly cloudy - 13.8 1013.7 0.0
25/03:30pm WNW 23 30 - - - - 10 Partly cloudy - 14.0 1013.6 0.0
25/03:00pm WNW 24 32 - - - - 10 Mostly cloudy - 14.1 1013.5 0.0
25/02:37pm WNW 24 34 - - - - 10 Partly cloudy - 14.4 1013.4 0.0
25/02:30pm WNW 25 33 - - - - 10 Partly cloudy - 14.7 1013.3 0.0
25/02:00pm NW 27 33 - - - - 10 Partly cloudy - 14.8 1013.3 0.0
25/01:30pm WNW 23 29 - - - - 10 Partly cloudy - 14.6 1013.6 0.0
25/01:00pm WNW 21 28 - - - - 10 Partly cloudy - 14.8 1014.0 0.0
25/12:30pm WNW 23 31 - - - - 10 Partly cloudy - 14.8 1014.1 0.0
25/12:00pm WNW 22 28 - - - - 10 Cloudy - 14.4 1014.2 0.0
25/11:30am WNW 24 32 - - - - 10 Partly cloudy - 13.7 1014.4 0.0
25/11:00am WNW 23 32 - - - - 10 Partly cloudy - 13.5 1014.6 0.0
25/10:30am WNW 23 30 - - - - 10 Partly cloudy - 13.8 1014.5 0.0
25/10:00am NW 22 28 - - - - 10 Partly cloudy - 13.4 1014.3 0.0
25/09:30am WNW 21 26 - - - - 10 Partly cloudy - 13.2 1014.1 0.0
25/09:00am WNW 21 27 - - - - 10 Mostly cloudy Rain 12.2 1013.9 1.4
25/08:56am WNW 20 27 - - - - 10 Partly cloudy - 12.3 1014.0 1.4
25/08:47am WNW 23 33 - - - - 6 Partly cloudy - 11.9 1013.9 1.4
25/08:39am WNW 24 33 - - - - 5 Partly cloudy - 11.9 1013.9 1.4
25/08:30am WNW 22 32 - - - - 10 Partly cloudy - 13.3 1013.6 1.0
25/08:00am WNW 18 24 - - - - 10 Partly cloudy - 12.7 1013.6 1.0
25/07:30am WNW 19 26 - - - - 10 Partly cloudy - 12.7 1013.5 1.0
25/07:09am WNW 19 29 - - - - 10 Partly cloudy - 12.7 1013.4 1.0
25/07:00am WNW 22 30 - - - - 10 Partly cloudy - 12.5 1013.3 1.0
25/06:30am NW 23 29 - - - - 10 Partly cloudy - 11.6 1013.0 1.0
25/06:00am WNW 19 25 - - - - 10 Partly cloudy - 12.6 1012.6 1.0
25/05:40am WNW 21 32 - - - - 10 Partly cloudy - 12.7 1012.6 1.0
25/05:30am WNW 19 27 - - - - 10 Partly cloudy - 12.7 1012.6 1.0
25/05:19am WNW 20 30 - - - - 10 Partly cloudy - 12.9 1012.4 1.0
25/05:00am WNW 23 30 - - - - 10 Partly cloudy - 12.7 1012.6 1.0
25/04:30am WNW 20 26 - - - - 10 Partly cloudy - 12.5 1012.4 1.0

Other formats

Comma delimited format used in spreadsheet applications
http://www.bom.gov.au/fwo/IDV60701/IDV60701.94850.axf

JavaScript Object Notation format (JSON) in row-major order
http://www.bom.gov.au/fwo/IDV60701/IDV60701.94850.json

Data quality

Most of these data are generated automatically and are frequently updated. Quality checks on data are not normally performed. It is possible for incorrect values to appear. Refer to information at About Latest Weather Observations and please check the disclaimer before using these data.